sensor_id;sensor_type;location;lat;lon;timestamp;P1;durP1;ratioP1;P2;durP2;ratioP2
1164;SDS011;571;50.930;6.926;2024-02-04T03:56:52;5.73;;;3.10;;
1164;SDS011;571;50.930;6.926;2024-02-04T04:32:13;4.60;;;3.90;;
1164;SDS011;571;50.930;6.926;2024-02-04T04:35:05;6.27;;;4.57;;
1164;SDS011;571;50.930;6.926;2024-02-04T04:38:33;4.97;;;4.40;;
1164;SDS011;571;50.930;6.926;2024-02-04T04:44:52;5.17;;;3.90;;
1164;SDS011;571;50.930;6.926;2024-02-04T04:48:14;4.53;;;3.90;;
1164;SDS011;571;50.930;6.926;2024-02-04T04:54:09;5.87;;;4.77;;
1164;SDS011;571;50.930;6.926;2024-02-04T04:57:36;6.20;;;5.00;;
1164;SDS011;571;50.930;6.926;2024-02-04T05:00:31;6.07;;;4.50;;
1164;SDS011;571;50.930;6.926;2024-02-04T05:12:35;5.00;;;3.67;;
1164;SDS011;571;50.930;6.926;2024-02-04T05:15:22;5.03;;;4.50;;
1164;SDS011;571;50.930;6.926;2024-02-04T05:18:16;6.13;;;5.10;;
1164;SDS011;571;50.930;6.926;2024-02-04T05:21:19;5.03;;;4.10;;
1164;SDS011;571;50.930;6.926;2024-02-04T05:23:59;4.40;;;3.83;;
1164;SDS011;571;50.930;6.926;2024-02-04T05:30:24;6.03;;;4.70;;
1164;SDS011;571;50.930;6.926;2024-02-04T05:33:16;4.53;;;4.10;;
1164;SDS011;571;50.930;6.926;2024-02-04T05:39:20;6.13;;;5.00;;
1164;SDS011;571;50.930;6.926;2024-02-04T05:42:48;6.67;;;5.20;;
1164;SDS011;571;50.930;6.926;2024-02-04T05:45:19;5.30;;;4.77;;
1164;SDS011;571;50.930;6.926;2024-02-04T05:50:53;5.93;;;4.60;;
1164;SDS011;571;50.930;6.926;2024-02-04T05:54:17;6.50;;;5.90;;
1164;SDS011;571;50.930;6.926;2024-02-04T06:03:25;4.33;;;3.63;;
1164;SDS011;571;50.930;6.926;2024-02-04T06:06:08;6.30;;;4.70;;
1164;SDS011;571;50.930;6.926;2024-02-04T06:09:12;5.00;;;4.50;;
1164;SDS011;571;50.930;6.926;2024-02-04T06:12:08;4.17;;;3.77;;
1164;SDS011;571;50.930;6.926;2024-02-04T06:18:47;4.77;;;3.43;;
1164;SDS011;571;50.930;6.926;2024-02-04T06:21:40;4.60;;;3.60;;
1164;SDS011;571;50.930;6.926;2024-02-04T06:24:49;5.70;;;3.93;;
1164;SDS011;571;50.930;6.926;2024-02-04T06:27:41;7.43;;;4.63;;
1164;SDS011;571;50.930;6.926;2024-02-04T06:36:48;4.23;;;3.83;;
1164;SDS011;571;50.930;6.926;2024-02-04T06:39:20;3.77;;;3.40;;
1164;SDS011;571;50.930;6.926;2024-02-04T06:42:01;3.40;;;2.87;;
1164;SDS011;571;50.930;6.926;2024-02-04T06:44:50;6.83;;;3.00;;
1164;SDS011;571;50.930;6.926;2024-02-04T06:54:14;3.10;;;2.80;;
1164;SDS011;571;50.930;6.926;2024-02-04T06:57:26;3.27;;;2.97;;
1164;SDS011;571;50.930;6.926;2024-02-04T07:00:32;2.87;;;2.40;;
1164;SDS011;571;50.930;6.926;2024-02-04T07:03:49;4.73;;;3.77;;
1164;SDS011;571;50.930;6.926;2024-02-04T07:09:47;5.60;;;4.20;;
1164;SDS011;571;50.930;6.926;2024-02-04T07:12:22;5.30;;;4.33;;
1164;SDS011;571;50.930;6.926;2024-02-04T07:15:17;4.37;;;3.60;;
1164;SDS011;571;50.930;6.926;2024-02-04T07:20:55;3.30;;;2.80;;
1164;SDS011;571;50.930;6.926;2024-02-04T07:35:53;4.50;;;3.20;;
1164;SDS011;571;50.930;6.926;2024-02-04T07:38:59;3.53;;;3.23;;
1164;SDS011;571;50.930;6.926;2024-02-04T07:41:50;3.17;;;2.73;;
1164;SDS011;571;50.930;6.926;2024-02-04T07:44:40;2.70;;;2.50;;
1164;SDS011;571;50.930;6.926;2024-02-04T07:47:18;2.20;;;2.00;;
1164;SDS011;571;50.930;6.926;2024-02-04T07:56:03;3.83;;;2.73;;
1164;SDS011;571;50.930;6.926;2024-02-04T08:01:37;1.60;;;1.50;;
1164;SDS011;571;50.930;6.926;2024-02-04T08:04:15;1.30;;;1.17;;
1164;SDS011;571;50.930;6.926;2024-02-04T08:13:27;4.23;;;1.80;;
1164;SDS011;571;50.930;6.926;2024-02-04T08:16:06;1.63;;;1.53;;
1164;SDS011;571;50.930;6.926;2024-02-04T08:19:01;2.27;;;1.53;;
1164;SDS011;571;50.930;6.926;2024-02-04T08:21:43;1.50;;;1.40;;
1164;SDS011;571;50.930;6.926;2024-02-04T08:24:29;2.10;;;1.90;;
1164;SDS011;571;50.930;6.926;2024-02-04T08:27:30;1.53;;;1.43;;
1164;SDS011;571;50.930;6.926;2024-02-04T08:36:31;1.60;;;1.50;;
1164;SDS011;571;50.930;6.926;2024-02-04T08:39:53;1.70;;;1.53;;
1164;SDS011;571;50.930;6.926;2024-02-04T08:46:34;1.77;;;1.67;;
1164;SDS011;571;50.930;6.926;2024-02-04T09:19:14;1.80;;;1.17;;
1164;SDS011;571;50.930;6.926;2024-02-04T09:22:19;1.37;;;0.80;;
1164;SDS011;571;50.930;6.926;2024-02-04T17:51:29;2.87;;;1.20;;
1164;SDS011;571;50.930;6.926;2024-02-04T17:54:24;2.27;;;1.40;;
1164;SDS011;571;50.930;6.926;2024-02-04T18:00:56;2.90;;;1.20;;
1164;SDS011;571;50.930;6.926;2024-02-04T19:55:48;3.77;;;1.40;;
1164;SDS011;571;50.930;6.926;2024-02-04T20:00:52;1.93;;;1.20;;
1164;SDS011;571;50.930;6.926;2024-02-04T20:02:01;1.60;;;1.50;;
1164;SDS011;571;50.930;6.926;2024-02-04T20:05:08;3.03;;;1.93;;
1164;SDS011;571;50.930;6.926;2024-02-04T20:15:23;2.30;;;1.70;;
1164;SDS011;571;50.930;6.926;2024-02-04T20:24:46;5.17;;;3.10;;
1164;SDS011;571;50.930;6.926;2024-02-04T20:27:35;2.30;;;2.10;;
1164;SDS011;571;50.930;6.926;2024-02-04T20:30:34;4.47;;;2.40;;
1164;SDS011;571;50.930;6.926;2024-02-04T20:33:23;3.03;;;2.40;;
1164;SDS011;571;50.930;6.926;2024-02-04T20:36:16;3.17;;;2.40;;
1164;SDS011;571;50.930;6.926;2024-02-04T20:39:02;2.80;;;2.60;;
1164;SDS011;571;50.930;6.926;2024-02-04T20:41:44;5.20;;;3.30;;
1164;SDS011;571;50.930;6.926;2024-02-04T20:47:49;1.93;;;1.80;;
1164;SDS011;571;50.930;6.926;2024-02-04T20:50:24;1.70;;;1.60;;
1164;SDS011;571;50.930;6.926;2024-02-04T20:56:12;4.87;;;2.40;;
1164;SDS011;571;50.930;6.926;2024-02-04T21:02:13;10.47;;;2.83;;
1164;SDS011;571;50.930;6.926;2024-02-04T21:04:42;4.00;;;2.50;;
1164;SDS011;571;50.930;6.926;2024-02-04T21:07:09;3.23;;;2.20;;
1164;SDS011;571;50.930;6.926;2024-02-04T21:09:45;2.80;;;1.97;;
1164;SDS011;571;50.930;6.926;2024-02-04T21:12:18;1.50;;;1.40;;
1164;SDS011;571;50.930;6.926;2024-02-04T21:14:52;1.40;;;1.30;;
1164;SDS011;571;50.930;6.926;2024-02-04T21:17:20;1.90;;;1.50;;
1164;SDS011;571;50.930;6.926;2024-02-04T21:19:50;4.73;;;1.10;;
1164;SDS011;571;50.930;6.926;2024-02-04T21:22:21;0.70;;;0.70;;
1164;SDS011;571;50.930;6.926;2024-02-04T21:25:03;3.70;;;1.27;;
1164;SDS011;571;50.930;6.926;2024-02-04T21:27:50;1.77;;;1.27;;
1164;SDS011;571;50.930;6.926;2024-02-04T21:30:20;1.33;;;0.97;;
1164;SDS011;571;50.930;6.926;2024-02-04T21:32:48;1.30;;;0.93;;
1164;SDS011;571;50.930;6.926;2024-02-04T21:35:21;1.13;;;1.03;;
1164;SDS011;571;50.930;6.926;2024-02-04T21:37:56;1.10;;;0.90;;
1164;SDS011;571;50.930;6.926;2024-02-04T21:40:31;1.00;;;1.00;;
1164;SDS011;571;50.930;6.926;2024-02-04T21:43:13;1.10;;;1.00;;
1164;SDS011;571;50.930;6.926;2024-02-04T22:19:06;2.70;;;1.50;;
1164;SDS011;571;50.930;6.926;2024-02-04T22:21:34;1.73;;;1.30;;
1164;SDS011;571;50.930;6.926;2024-02-04T22:24:04;3.23;;;2.07;;
1164;SDS011;571;50.930;6.926;2024-02-04T22:26:34;2.93;;;1.53;;
1164;SDS011;571;50.930;6.926;2024-02-04T22:29:02;8.97;;;2.40;;
1164;SDS011;571;50.930;6.926;2024-02-04T22:31:29;3.97;;;2.10;;
1164;SDS011;571;50.930;6.926;2024-02-04T22:33:56;2.70;;;1.20;;
1164;SDS011;571;50.930;6.926;2024-02-04T22:36:27;3.80;;;2.10;;
1164;SDS011;571;50.930;6.926;2024-02-04T22:38:58;3.33;;;1.60;;
1164;SDS011;571;50.930;6.926;2024-02-04T22:41:25;2.33;;;1.90;;
1164;SDS011;571;50.930;6.926;2024-02-04T22:43:53;1.63;;;1.00;;
1164;SDS011;571;50.930;6.926;2024-02-04T22:46:21;1.73;;;1.63;;
1164;SDS011;571;50.930;6.926;2024-02-04T22:48:51;1.77;;;1.50;;
1164;SDS011;571;50.930;6.926;2024-02-04T22:51:21;1.53;;;1.40;;
1164;SDS011;571;50.930;6.926;2024-02-04T22:53:51;2.87;;;1.50;;
1164;SDS011;571;50.930;6.926;2024-02-04T22:56:21;2.10;;;1.70;;
1164;SDS011;571;50.930;6.926;2024-02-04T22:58:51;3.63;;;1.73;;
